createdAt,value
2019-02-02T00:00:39.346Z,1.16
2019-02-02T00:01:39.336Z,1.12
2019-02-02T00:02:39.323Z,1.09
2019-02-02T00:03:39.312Z,1.16
2019-02-02T00:04:39.353Z,1.17
2019-02-02T00:05:39.302Z,1.17
2019-02-02T00:06:39.284Z,1.12
2019-02-02T00:07:39.270Z,1.23
2019-02-02T00:08:39.264Z,1.23
2019-02-02T00:09:39.248Z,1.20
2019-02-02T00:10:39.291Z,1.26
2019-02-02T00:11:39.246Z,1.21
2019-02-02T00:12:39.215Z,1.24
2019-02-02T00:13:39.203Z,1.20
2019-02-02T00:14:39.195Z,1.26
2019-02-02T00:15:39.186Z,1.26
2019-02-02T00:16:39.208Z,1.23
2019-02-02T00:17:39.173Z,1.30
2019-02-02T00:18:39.150Z,1.39
2019-02-02T00:19:39.139Z,1.41
2019-02-02T00:20:39.129Z,1.39
2019-02-02T00:21:39.117Z,1.35
2019-02-02T00:22:39.147Z,1.46
2019-02-02T00:23:39.104Z,1.41
2019-02-02T00:24:39.085Z,1.46
2019-02-02T00:25:39.077Z,1.44
2019-02-02T00:26:39.064Z,1.36
2019-02-02T00:27:41.363Z,1.46
2019-02-02T00:28:39.225Z,1.45
2019-02-02T00:29:39.041Z,1.49
2019-02-02T00:30:39.027Z,1.49
2019-02-02T00:31:39.023Z,1.41
2019-02-02T00:32:39.010Z,1.48
2019-02-02T00:33:38.997Z,1.48
2019-02-02T00:34:39.015Z,1.44
2019-02-02T00:35:38.981Z,1.45
2019-02-02T00:36:38.962Z,1.48
2019-02-02T00:37:38.952Z,1.48
2019-02-02T00:38:38.936Z,1.41
2019-02-02T00:39:38.931Z,1.48
2019-02-02T00:40:38.973Z,1.48
2019-02-02T00:41:38.946Z,1.49
2019-02-02T00:42:38.913Z,1.48
2019-02-02T00:43:38.894Z,1.53
2019-02-02T00:44:38.878Z,1.48
2019-02-02T00:45:38.869Z,1.45
2019-02-02T00:46:38.896Z,1.49
2019-02-02T00:47:38.851Z,1.49
2019-02-02T00:48:38.860Z,1.48
2019-02-02T00:49:38.858Z,1.60
2019-02-02T00:50:38.828Z,1.62
2019-02-02T00:51:38.811Z,1.59
2019-02-02T00:52:38.825Z,1.64
2019-02-02T00:53:38.806Z,1.62
2019-02-02T00:54:38.852Z,1.66
2019-02-02T00:55:38.778Z,1.64
2019-02-02T00:56:38.749Z,1.57
2019-02-02T00:57:38.755Z,1.62
2019-02-02T00:58:38.766Z,1.62
2019-02-02T00:59:38.715Z,1.63
2019-02-02T01:00:38.711Z,1.66
2019-02-02T01:01:38.729Z,1.63
2019-02-02T01:02:38.678Z,1.66
2019-02-02T01:03:38.671Z,1.62
2019-02-02T01:04:38.737Z,1.64
2019-02-02T01:05:38.652Z,1.64
2019-02-02T01:06:38.656Z,1.62
2019-02-02T01:07:38.628Z,1.66
2019-02-02T01:08:38.625Z,1.67
2019-02-02T01:09:38.602Z,1.66
2019-02-02T01:10:38.645Z,1.62
2019-02-02T01:11:38.601Z,1.63
2019-02-02T01:12:38.573Z,1.77
2019-02-02T01:13:38.559Z,1.67
2019-02-02T01:14:38.557Z,1.71
2019-02-02T01:15:38.547Z,1.71
2019-02-02T01:16:38.714Z,1.71
2019-02-02T01:17:38.515Z,1.64
2019-02-02T01:18:38.567Z,1.64
2019-02-02T01:19:38.495Z,1.67
2019-02-02T01:20:38.487Z,1.71
2019-02-02T01:21:38.469Z,1.63
2019-02-02T01:22:38.512Z,1.71
2019-02-02T01:23:38.451Z,1.73
2019-02-02T01:24:38.448Z,1.75
2019-02-02T01:25:38.430Z,1.71
2019-02-02T01:26:38.422Z,1.74
2019-02-02T01:27:38.413Z,1.73
2019-02-02T01:28:38.447Z,1.71
2019-02-02T01:29:38.384Z,1.62
2019-02-02T01:30:38.385Z,1.60
2019-02-02T01:31:38.364Z,1.67
2019-02-02T01:32:38.359Z,1.71
2019-02-02T01:33:38.345Z,1.67
2019-02-02T01:34:38.396Z,1.63
2019-02-02T01:35:38.329Z,1.74
2019-02-02T01:36:38.309Z,1.67
2019-02-02T01:37:38.321Z,1.73
2019-02-02T01:38:38.313Z,1.69
2019-02-02T01:39:38.292Z,1.67
2019-02-02T01:40:38.299Z,1.62
2019-02-02T01:41:38.260Z,1.75
2019-02-02T01:42:38.260Z,1.60
2019-02-02T01:43:38.232Z,1.62
2019-02-02T01:44:38.230Z,1.60
2019-02-02T01:45:38.218Z,1.67
2019-02-02T01:46:38.252Z,1.62
2019-02-02T01:47:38.207Z,1.59
2019-02-02T01:48:38.176Z,1.56
2019-02-02T01:49:38.181Z,1.71
2019-02-02T01:50:38.159Z,1.66
2019-02-02T01:51:38.145Z,1.63
2019-02-02T01:52:38.184Z,1.57
2019-02-02T01:53:38.130Z,1.55
2019-02-02T01:54:38.575Z,1.57
2019-02-02T01:55:38.114Z,1.56
2019-02-02T01:56:38.107Z,1.59
2019-02-02T01:57:38.112Z,1.62
2019-02-02T01:58:38.106Z,1.48
2019-02-02T01:59:38.069Z,1.49
2019-02-02T02:00:38.063Z,1.49
2019-02-02T02:01:38.043Z,1.48
2019-02-02T02:02:38.033Z,1.53
2019-02-02T02:03:38.069Z,1.49
2019-02-02T02:04:38.054Z,1.52
2019-02-02T02:05:38.000Z,1.44
2019-02-02T02:06:37.989Z,1.52
2019-02-02T02:07:37.976Z,1.46
2019-02-02T02:08:37.977Z,1.45
2019-02-02T02:09:38.002Z,1.53
2019-02-02T02:10:37.987Z,1.49
2019-02-02T02:11:37.936Z,1.44
2019-02-02T02:12:37.927Z,1.48
2019-02-02T02:13:37.911Z,1.52
2019-02-02T02:14:37.923Z,1.48
2019-02-02T02:15:37.907Z,1.48
2019-02-02T02:16:37.901Z,1.44
2019-02-02T02:17:37.876Z,1.45
2019-02-02T02:18:37.856Z,1.53
2019-02-02T02:19:37.841Z,1.49
2019-02-02T02:20:37.832Z,1.45
2019-02-02T02:21:37.821Z,1.48
2019-02-02T02:22:41.151Z,1.48
2019-02-02T02:23:37.804Z,1.49
2019-02-02T02:24:37.799Z,1.53
2019-02-02T02:25:37.780Z,1.53
2019-02-02T02:26:37.782Z,1.52
2019-02-02T02:27:37.764Z,1.52
2019-02-02T02:28:38.085Z,1.56
2019-02-02T02:29:37.737Z,1.53
2019-02-02T02:30:37.729Z,1.56
2019-02-02T02:31:37.712Z,1.53
2019-02-02T02:32:37.703Z,1.53
2019-02-02T02:33:37.698Z,1.48
2019-02-02T02:34:37.716Z,1.48
2019-02-02T02:35:37.698Z,1.55
2019-02-02T02:36:37.662Z,1.45
2019-02-02T02:37:37.654Z,1.45
2019-02-02T02:38:37.723Z,1.48
2019-02-02T02:39:37.650Z,1.46
2019-02-02T02:40:37.682Z,1.42
2019-02-02T02:41:37.610Z,1.52
2019-02-02T02:42:37.623Z,1.45
2019-02-02T02:43:37.583Z,1.46
2019-02-02T02:44:37.574Z,1.52
2019-02-02T02:45:37.577Z,1.46
2019-02-02T02:46:37.606Z,1.53
2019-02-02T02:47:37.539Z,1.45
2019-02-02T02:48:37.533Z,1.46
2019-02-02T02:49:37.517Z,1.48
2019-02-02T02:50:37.531Z,1.45
2019-02-02T02:51:37.505Z,1.41
2019-02-02T02:52:37.524Z,1.46
2019-02-02T02:53:37.496Z,1.48
2019-02-02T02:54:37.461Z,1.42
2019-02-02T02:55:37.453Z,1.52
2019-02-02T02:56:37.449Z,1.45
2019-02-02T02:57:37.472Z,1.48
2019-02-02T02:58:41.661Z,1.48
2019-02-02T02:59:37.426Z,1.48
2019-02-02T03:00:37.405Z,1.49
2019-02-02T03:01:37.389Z,1.42
2019-02-02T03:02:37.380Z,1.48
2019-02-02T03:03:37.379Z,1.46
2019-02-02T03:04:37.421Z,1.46
2019-02-02T03:05:37.347Z,1.52
2019-02-02T03:06:37.348Z,1.53
2019-02-02T03:07:37.349Z,1.53
2019-02-02T03:08:37.313Z,1.46
2019-02-02T03:09:37.309Z,1.46
2019-02-02T03:10:37.336Z,1.44
2019-02-02T03:11:37.294Z,1.48
2019-02-02T03:12:37.288Z,1.48
2019-02-02T03:13:37.258Z,1.45
2019-02-02T03:14:37.252Z,1.41
2019-02-02T03:15:37.241Z,1.46
2019-02-02T03:16:37.258Z,1.52
2019-02-02T03:17:37.213Z,1.45
2019-02-02T03:18:37.206Z,1.44
2019-02-02T03:19:37.244Z,1.46
2019-02-02T03:20:37.189Z,1.48
2019-02-02T03:21:37.179Z,1.41
2019-02-02T03:22:37.211Z,1.45
2019-02-02T03:23:37.151Z,1.45
2019-02-02T03:24:37.144Z,1.42
2019-02-02T03:25:37.137Z,1.49
2019-02-02T03:26:37.129Z,1.38
2019-02-02T03:27:37.108Z,1.41
2019-02-02T03:28:37.133Z,1.48
2019-02-02T03:29:37.086Z,1.42
2019-02-02T03:30:37.075Z,1.39
2019-02-02T03:31:37.090Z,1.49
2019-02-02T03:32:37.073Z,1.48
2019-02-02T03:33:37.076Z,1.45
2019-02-02T03:34:37.102Z,1.44
2019-02-02T03:35:37.028Z,1.44
2019-02-02T03:36:37.008Z,1.45
2019-02-02T03:37:37.005Z,1.42
2019-02-02T03:38:36.991Z,1.42
2019-02-02T03:39:36.988Z,1.35
2019-02-02T03:40:37.282Z,1.42
2019-02-02T03:41:36.978Z,1.44
2019-02-02T03:42:36.954Z,1.28
2019-02-02T03:43:36.944Z,1.34
2019-02-02T03:44:36.924Z,1.30
2019-02-02T03:45:40.482Z,1.34
2019-02-02T03:46:36.930Z,1.34
2019-02-02T03:47:36.892Z,1.31
2019-02-02T03:48:36.894Z,1.26
2019-02-02T03:49:36.870Z,1.27
2019-02-02T03:50:36.865Z,1.34
2019-02-02T03:51:36.861Z,1.30
2019-02-02T03:52:36.883Z,1.35
2019-02-02T03:53:36.830Z,1.35
2019-02-02T03:54:36.828Z,1.26
2019-02-02T03:55:36.810Z,1.30
2019-02-02T03:56:36.803Z,1.39
2019-02-02T03:57:36.786Z,1.31
2019-02-02T03:58:36.823Z,1.23
2019-02-02T03:59:36.911Z,1.36
2019-02-02T04:00:36.758Z,1.34
2019-02-02T04:01:36.762Z,1.30
2019-02-02T04:02:36.742Z,1.35
2019-02-02T04:03:36.723Z,1.26
2019-02-02T04:04:36.736Z,1.24
2019-02-02T04:05:36.786Z,1.21
2019-02-02T04:06:36.705Z,1.23
2019-02-02T04:07:36.679Z,1.39
2019-02-02T04:08:36.665Z,1.21
2019-02-02T04:09:36.702Z,1.23
2019-02-02T04:10:36.679Z,1.26
2019-02-02T04:11:36.641Z,1.36
2019-02-02T04:12:36.634Z,1.24
2019-02-02T04:13:36.633Z,1.21
2019-02-02T04:14:36.645Z,1.23
2019-02-02T04:15:36.591Z,1.27
2019-02-02T04:16:36.626Z,1.24
2019-02-02T04:17:36.575Z,1.36
2019-02-02T04:18:36.559Z,1.34
2019-02-02T04:19:36.552Z,1.23
2019-02-02T04:20:36.544Z,1.30
2019-02-02T04:21:36.536Z,1.26
2019-02-02T04:22:36.556Z,1.26
2019-02-02T04:23:36.619Z,1.26
2019-02-02T04:24:36.494Z,1.27
2019-02-02T04:25:36.510Z,1.28
2019-02-02T04:26:36.471Z,1.26
2019-02-02T04:27:36.459Z,1.26
2019-02-02T04:28:36.483Z,1.28
2019-02-02T04:29:36.441Z,1.28
2019-02-02T04:30:36.429Z,1.24
2019-02-02T04:31:36.426Z,1.26
2019-02-02T04:32:36.418Z,1.21
2019-02-02T04:33:36.394Z,1.24
2019-02-02T04:34:36.426Z,1.24
2019-02-02T04:35:36.384Z,1.24
2019-02-02T04:36:36.376Z,1.26
2019-02-02T04:37:38.305Z,1.26
2019-02-02T04:38:36.342Z,1.24
2019-02-02T04:39:36.337Z,1.26
2019-02-02T04:40:36.350Z,1.26
2019-02-02T04:41:36.314Z,1.27
2019-02-02T04:42:36.303Z,1.24
2019-02-02T04:43:36.291Z,1.20
2019-02-02T04:44:36.298Z,1.26
2019-02-02T04:45:36.268Z,1.21
2019-02-02T04:46:36.311Z,1.23
2019-02-02T04:47:36.265Z,1.27
2019-02-02T04:48:36.234Z,1.30
2019-02-02T04:49:36.233Z,1.21
2019-02-02T04:50:36.214Z,1.21
2019-02-02T04:51:36.205Z,1.27
2019-02-02T04:52:36.245Z,1.20
2019-02-02T04:53:36.195Z,1.23
2019-02-02T04:54:36.182Z,1.23
2019-02-02T04:55:36.159Z,1.21
2019-02-02T04:56:36.174Z,1.26
2019-02-02T04:57:36.133Z,1.26
2019-02-02T04:58:36.170Z,1.24
2019-02-02T04:59:36.117Z,1.26
2019-02-02T05:00:36.117Z,1.24
2019-02-02T05:01:36.096Z,1.24
2019-02-02T05:02:36.084Z,1.21
2019-02-02T05:03:36.166Z,1.28
2019-02-02T05:04:36.102Z,1.28
2019-02-02T05:05:36.050Z,1.28
2019-02-02T05:06:36.103Z,1.23
2019-02-02T05:07:36.042Z,1.24
2019-02-02T05:08:36.024Z,1.24
2019-02-02T05:09:36.007Z,1.26
2019-02-02T05:10:36.038Z,1.23
2019-02-02T05:11:35.983Z,1.35
2019-02-02T05:12:35.973Z,1.24
2019-02-02T05:13:35.961Z,1.24
2019-02-02T05:14:35.984Z,1.26
2019-02-02T05:15:35.951Z,1.26
2019-02-02T05:16:35.975Z,1.30
2019-02-02T05:17:35.933Z,1.38
2019-02-02T05:18:35.911Z,1.39
2019-02-02T05:19:35.902Z,1.24
2019-02-02T05:20:35.883Z,1.21
2019-02-02T05:21:35.877Z,1.28
2019-02-02T05:22:35.915Z,1.39
2019-02-02T05:23:35.851Z,1.26
2019-02-02T05:24:35.846Z,1.30
2019-02-02T05:25:35.830Z,1.39
2019-02-02T05:26:35.817Z,1.30
2019-02-02T05:27:35.813Z,1.39
2019-02-02T05:28:35.980Z,1.27
2019-02-02T05:29:41.541Z,1.31
2019-02-02T05:30:36.781Z,1.28
2019-02-02T05:31:35.782Z,1.27
2019-02-02T05:32:35.756Z,1.28
2019-02-02T05:33:35.792Z,1.34
2019-02-02T05:34:35.801Z,1.41
2019-02-02T05:35:35.760Z,1.28
2019-02-02T05:36:35.717Z,1.46
2019-02-02T05:37:35.705Z,1.45
2019-02-02T05:38:35.711Z,1.44
2019-02-02T05:39:35.715Z,1.42
2019-02-02T05:40:35.724Z,1.44
2019-02-02T05:41:35.670Z,1.38
2019-02-02T05:42:35.653Z,1.39
2019-02-02T05:43:35.646Z,1.52
2019-02-02T05:44:35.684Z,1.42
2019-02-02T05:45:35.614Z,1.44
2019-02-02T05:46:35.663Z,1.41
2019-02-02T05:47:35.595Z,1.42
2019-02-02T05:48:35.598Z,1.46
2019-02-02T05:49:35.573Z,1.46
2019-02-02T05:50:35.570Z,1.52
2019-02-02T05:51:35.566Z,1.45
2019-02-02T05:52:35.597Z,1.48
2019-02-02T05:53:35.530Z,1.45
2019-02-02T05:54:35.553Z,1.48
2019-02-02T05:55:35.521Z,1.44
2019-02-02T05:56:35.509Z,1.48
2019-02-02T05:57:35.544Z,1.46
2019-02-02T05:58:35.514Z,1.48
2019-02-02T05:59:35.475Z,1.48
2019-02-02T06:00:35.453Z,1.42
2019-02-02T06:01:35.459Z,1.49
2019-02-02T06:02:35.521Z,1.48
2019-02-02T06:03:35.433Z,1.48
2019-02-02T06:04:35.454Z,1.46
2019-02-02T06:05:35.403Z,1.41
2019-02-02T06:06:35.451Z,1.42
2019-02-02T06:07:35.378Z,1.42
2019-02-02T06:08:35.372Z,1.44
2019-02-02T06:09:35.378Z,1.41
2019-02-02T06:10:35.391Z,1.45
2019-02-02T06:11:35.341Z,1.39
2019-02-02T06:12:35.325Z,1.55
2019-02-02T06:13:35.332Z,1.46
2019-02-02T06:14:35.303Z,1.41
2019-02-02T06:15:35.297Z,1.44
2019-02-02T06:16:35.332Z,1.41
2019-02-02T06:17:35.279Z,1.42
2019-02-02T06:18:35.289Z,1.36
2019-02-02T06:19:35.298Z,1.48
2019-02-02T06:20:35.241Z,1.39
2019-02-02T06:21:35.235Z,1.44
2019-02-02T06:22:35.263Z,1.52
2019-02-02T06:23:35.217Z,1.49
2019-02-02T06:24:35.199Z,1.48
2019-02-02T06:25:35.190Z,1.45
2019-02-02T06:26:35.203Z,1.42
2019-02-02T06:27:35.176Z,1.39
2019-02-02T06:28:35.192Z,1.48
2019-02-02T06:29:35.140Z,1.46
2019-02-02T06:30:35.138Z,1.42
2019-02-02T06:31:35.152Z,1.49
2019-02-02T06:32:35.117Z,1.39
2019-02-02T06:33:35.106Z,1.46
2019-02-02T06:34:35.136Z,1.45
2019-02-02T06:35:35.092Z,1.42
2019-02-02T06:36:35.096Z,1.45
2019-02-02T06:37:35.056Z,1.45
2019-02-02T06:38:35.069Z,1.45
2019-02-02T06:39:35.037Z,1.42
2019-02-02T06:40:35.061Z,1.45
2019-02-02T06:41:35.018Z,1.45
2019-02-02T06:42:35.006Z,1.46
2019-02-02T06:43:34.992Z,1.41
2019-02-02T06:44:34.984Z,1.44
2019-02-02T06:45:35.001Z,1.48
2019-02-02T06:46:43.311Z,1.46
2019-02-02T06:47:35.950Z,1.46
2019-02-02T06:48:35.046Z,1.42
2019-02-02T06:49:34.932Z,1.48
2019-02-02T06:50:34.929Z,1.44
2019-02-02T06:51:34.964Z,1.45
2019-02-02T06:52:34.945Z,1.52
2019-02-02T06:53:34.889Z,1.48
2019-02-02T06:54:34.876Z,1.45
2019-02-02T06:55:34.865Z,1.38
2019-02-02T06:56:34.860Z,1.49
2019-02-02T06:57:34.845Z,1.48
2019-02-02T06:58:34.886Z,1.44
2019-02-02T06:59:34.821Z,1.48
2019-02-02T07:00:34.820Z,1.46
2019-02-02T07:01:34.811Z,1.46
2019-02-02T07:02:34.797Z,1.46
2019-02-02T07:03:34.821Z,1.48
2019-02-02T07:04:34.814Z,1.52
2019-02-02T07:05:34.775Z,1.52
2019-02-02T07:06:34.760Z,1.49
2019-02-02T07:07:34.740Z,1.52
2019-02-02T07:08:34.726Z,1.48
2019-02-02T07:09:34.734Z,1.52
2019-02-02T07:10:34.766Z,1.49
2019-02-02T07:11:34.705Z,1.59
2019-02-02T07:12:34.712Z,1.53
2019-02-02T07:13:36.100Z,1.62
2019-02-02T07:14:34.671Z,1.62
2019-02-02T07:15:34.648Z,1.59
2019-02-02T07:16:34.701Z,1.62
2019-02-02T07:17:34.749Z,1.57
2019-02-02T07:18:34.628Z,1.63
2019-02-02T07:19:34.642Z,1.63
2019-02-02T07:20:34.624Z,1.60
2019-02-02T07:21:34.639Z,1.62
2019-02-02T07:22:34.991Z,1.59
2019-02-02T07:23:34.728Z,1.60
2019-02-02T07:24:34.587Z,1.56
2019-02-02T07:25:35.092Z,1.63
2019-02-02T07:26:34.532Z,1.62
2019-02-02T07:27:34.516Z,1.67
2019-02-02T07:28:34.704Z,1.69
2019-02-02T07:29:34.498Z,1.66
2019-02-02T07:30:34.740Z,1.63
2019-02-02T07:31:34.484Z,1.71
2019-02-02T07:32:34.467Z,1.63
2019-02-02T07:33:34.453Z,1.66
2019-02-02T07:34:34.508Z,1.62
2019-02-02T07:35:34.435Z,1.69
2019-02-02T07:36:34.425Z,1.71
2019-02-02T07:37:34.413Z,1.71
2019-02-02T07:38:34.409Z,1.75
2019-02-02T07:39:34.400Z,1.64
2019-02-02T07:40:34.443Z,1.73
2019-02-02T07:41:34.401Z,1.73
2019-02-02T07:42:34.379Z,1.77
2019-02-02T07:43:34.382Z,1.80
2019-02-02T07:44:34.353Z,1.84
2019-02-02T07:45:34.366Z,1.82
2019-02-02T07:46:34.371Z,1.78
2019-02-02T07:47:34.307Z,1.75
2019-02-02T07:48:34.332Z,1.84
2019-02-02T07:49:34.287Z,1.80
2019-02-02T07:50:34.273Z,1.85
2019-02-02T07:51:34.280Z,1.80
2019-02-02T07:52:34.295Z,1.91
2019-02-02T07:53:34.258Z,1.85
2019-02-02T07:54:34.249Z,1.80
2019-02-02T07:55:34.263Z,1.85
2019-02-02T07:56:34.208Z,1.89
2019-02-02T07:57:34.213Z,1.84
2019-02-02T07:58:34.227Z,2.00
2019-02-02T07:59:34.182Z,1.99
2019-02-02T08:00:40.843Z,1.97
2019-02-02T08:01:35.177Z,2.01
2019-02-02T08:02:34.160Z,2.06
2019-02-02T08:03:34.147Z,2.03
2019-02-02T08:04:34.159Z,2.06
2019-02-02T08:05:34.121Z,2.04
2019-02-02T08:06:34.169Z,2.01
2019-02-02T08:07:34.142Z,2.01
2019-02-02T08:08:34.094Z,2.10
2019-02-02T08:09:34.065Z,2.03
2019-02-02T08:10:34.122Z,2.10
2019-02-02T08:11:34.067Z,2.03
2019-02-02T08:12:34.065Z,2.06
2019-02-02T08:13:34.034Z,2.10
2019-02-02T08:14:34.029Z,2.14
2019-02-02T08:15:34.062Z,2.03
2019-02-02T08:16:34.041Z,2.14
2019-02-02T08:17:33.983Z,2.07
2019-02-02T08:18:33.982Z,2.04
2019-02-02T08:19:33.963Z,2.07
2019-02-02T08:20:33.958Z,2.11
2019-02-02T08:21:33.948Z,2.03
2019-02-02T08:22:33.966Z,2.03
2019-02-02T08:23:33.953Z,2.07
2019-02-02T08:24:33.921Z,2.01
2019-02-02T08:25:33.892Z,2.06
2019-02-02T08:26:33.896Z,2.10
2019-02-02T08:27:33.875Z,2.10
2019-02-02T08:28:33.910Z,2.14
2019-02-02T08:29:33.851Z,2.12
2019-02-02T08:30:35.897Z,2.17
2019-02-02T08:31:33.832Z,2.12
2019-02-02T08:32:33.815Z,2.17
2019-02-02T08:33:33.823Z,2.11
2019-02-02T08:34:33.850Z,2.12
2019-02-02T08:35:33.791Z,2.15
2019-02-02T08:36:33.778Z,2.06
2019-02-02T08:37:33.768Z,2.04
2019-02-02T08:38:33.767Z,2.03
2019-02-02T08:39:33.767Z,2.07
2019-02-02T08:40:33.802Z,2.10
2019-02-02T08:41:33.751Z,2.03
2019-02-02T08:42:33.728Z,2.04
2019-02-02T08:43:33.707Z,2.11
2019-02-02T08:44:33.689Z,2.07
2019-02-02T08:45:33.690Z,2.10
2019-02-02T08:46:33.703Z,2.14
2019-02-02T08:47:33.656Z,2.03
2019-02-02T08:48:33.680Z,2.10
2019-02-02T08:49:33.668Z,2.10
2019-02-02T08:50:33.637Z,2.04
2019-02-02T08:51:33.609Z,2.07
2019-02-02T08:52:33.903Z,2.14
2019-02-02T08:53:33.688Z,2.12
2019-02-02T08:54:33.613Z,2.11
2019-02-02T08:55:33.627Z,2.11
2019-02-02T08:56:33.769Z,2.04
2019-02-02T08:57:33.714Z,2.00
2019-02-02T08:58:33.594Z,2.01
2019-02-02T08:59:34.463Z,2.03
2019-02-02T09:00:33.514Z,2.01
2019-02-02T09:01:33.506Z,2.04
2019-02-02T09:02:33.493Z,2.00
2019-02-02T09:03:33.497Z,2.10
2019-02-02T09:04:33.643Z,2.01
2019-02-02T09:05:33.462Z,1.99
2019-02-02T09:06:39.004Z,2.18
2019-02-02T09:07:34.434Z,2.01
2019-02-02T09:08:33.436Z,2.10
2019-02-02T09:09:33.434Z,2.07
2019-02-02T09:10:33.505Z,2.06
2019-02-02T09:11:33.414Z,2.15
2019-02-02T09:12:33.511Z,2.17
2019-02-02T09:13:33.377Z,2.29
2019-02-02T09:14:33.367Z,2.30
2019-02-02T09:15:33.352Z,2.39
2019-02-02T09:16:33.397Z,2.35
2019-02-02T09:17:33.328Z,2.43
2019-02-02T09:18:33.325Z,2.42
2019-02-02T09:19:33.307Z,2.53
2019-02-02T09:20:33.293Z,2.55
2019-02-02T09:21:33.291Z,2.53
2019-02-02T09:22:33.328Z,2.60
2019-02-02T09:23:33.312Z,2.51
2019-02-02T09:24:33.262Z,2.63
2019-02-02T09:25:33.254Z,2.69
2019-02-02T09:26:33.249Z,2.79
2019-02-02T09:27:33.219Z,2.78
2019-02-02T09:28:33.268Z,2.76
2019-02-02T09:29:33.203Z,2.82
2019-02-02T09:30:33.198Z,2.90
2019-02-02T09:31:33.195Z,2.94
2019-02-02T09:32:33.169Z,3.05
2019-02-02T09:33:33.150Z,3.00
2019-02-02T09:34:33.182Z,3.02
2019-02-02T09:35:33.129Z,3.04
2019-02-02T09:36:33.139Z,3.04
2019-02-02T09:37:33.120Z,2.91
2019-02-02T09:38:33.104Z,2.99
2019-02-02T09:39:33.099Z,3.05
2019-02-02T09:40:33.149Z,3.04
2019-02-02T09:41:33.079Z,3.02
2019-02-02T09:42:33.091Z,3.09
2019-02-02T09:43:33.054Z,3.09
2019-02-02T09:44:33.030Z,3.11
2019-02-02T09:45:33.034Z,3.09
2019-02-02T09:46:33.038Z,3.14
2019-02-02T09:47:32.998Z,3.17
2019-02-02T09:48:33.002Z,3.00
2019-02-02T09:49:32.977Z,2.93
2019-02-02T09:50:32.965Z,2.93
2019-02-02T09:51:32.957Z,2.91
2019-02-02T09:52:32.989Z,3.18
2019-02-02T09:53:32.934Z,3.07
2019-02-02T09:54:32.939Z,3.17
2019-02-02T09:55:32.916Z,3.12
2019-02-02T09:56:32.908Z,3.18
2019-02-02T09:57:32.897Z,3.25
2019-02-02T09:58:32.942Z,3.26
2019-02-02T09:59:32.869Z,3.29
2019-02-02T10:00:32.865Z,3.35
2019-02-02T10:01:32.856Z,3.37
2019-02-02T10:02:32.837Z,3.42
2019-02-02T10:03:32.827Z,3.36
2019-02-02T10:04:32.853Z,3.45
2019-02-02T10:05:32.808Z,3.41
2019-02-02T10:06:32.792Z,3.41
2019-02-02T10:07:32.786Z,3.42
2019-02-02T10:08:32.771Z,3.46
2019-02-02T10:09:32.760Z,3.37
2019-02-02T10:10:32.794Z,3.44
2019-02-02T10:11:32.739Z,3.54
2019-02-02T10:12:32.736Z,3.44
2019-02-02T10:13:32.734Z,3.41
2019-02-02T10:14:32.707Z,3.37
2019-02-02T10:15:32.703Z,3.46
2019-02-02T10:16:32.726Z,3.37
2019-02-02T10:17:32.680Z,3.35
2019-02-02T10:18:32.668Z,3.36
2019-02-02T10:19:32.928Z,3.37
2019-02-02T10:20:32.747Z,3.51
2019-02-02T10:21:32.629Z,3.54
2019-02-02T10:22:32.723Z,3.48
2019-02-02T10:23:32.608Z,3.42
2019-02-02T10:24:32.730Z,3.44
2019-02-02T10:25:32.660Z,3.46
2019-02-02T10:26:32.592Z,3.63
2019-02-02T10:27:32.568Z,3.64
2019-02-02T10:28:32.592Z,3.55
2019-02-02T10:29:32.546Z,3.55
2019-02-02T10:30:32.634Z,3.63
2019-02-02T10:31:39.779Z,3.70
2019-02-02T10:32:33.513Z,3.72
2019-02-02T10:33:32.584Z,3.69
2019-02-02T10:34:32.536Z,3.66
2019-02-02T10:35:32.498Z,3.63
2019-02-02T10:36:32.469Z,3.73
2019-02-02T10:37:32.459Z,3.81
2019-02-02T10:38:32.446Z,3.80
2019-02-02T10:39:32.450Z,3.87
2019-02-02T10:40:32.479Z,3.87
2019-02-02T10:41:32.428Z,3.94
2019-02-02T10:42:32.405Z,3.84
2019-02-02T10:43:32.402Z,3.85
2019-02-02T10:44:32.380Z,3.91
2019-02-02T10:45:32.370Z,3.96
2019-02-02T10:46:32.411Z,3.87
2019-02-02T10:47:32.353Z,3.84
2019-02-02T10:48:32.343Z,3.91
2019-02-02T10:49:32.329Z,3.88
2019-02-02T10:50:32.325Z,3.82
2019-02-02T10:51:32.305Z,3.82
2019-02-02T10:52:32.332Z,3.72
2019-02-02T10:53:32.294Z,3.64
2019-02-02T10:54:32.276Z,3.67
2019-02-02T10:55:32.352Z,3.67
2019-02-02T10:56:32.250Z,3.70
2019-02-02T10:57:32.248Z,3.67
2019-02-02T10:58:32.292Z,3.63
2019-02-02T10:59:32.224Z,3.63
2019-02-02T11:00:32.207Z,3.64
2019-02-02T11:01:32.196Z,3.72
2019-02-02T11:02:32.185Z,3.63
2019-02-02T11:03:32.204Z,3.70
2019-02-02T11:04:32.238Z,3.64
2019-02-02T11:05:32.209Z,3.63
2019-02-02T11:06:32.463Z,3.66
2019-02-02T11:07:32.278Z,3.66
2019-02-02T11:08:33.697Z,3.66
2019-02-02T11:09:32.293Z,3.72
2019-02-02T11:10:32.442Z,3.74
2019-02-02T11:11:32.169Z,3.70
2019-02-02T11:12:32.107Z,3.80
2019-02-02T11:13:32.093Z,3.64
2019-02-02T11:14:32.058Z,3.62
2019-02-02T11:15:32.098Z,3.72
2019-02-02T11:16:32.108Z,3.70
2019-02-02T11:17:32.121Z,3.67
2019-02-02T11:18:32.038Z,3.55
2019-02-02T11:19:32.041Z,3.55
2019-02-02T11:20:32.025Z,3.60
2019-02-02T11:21:32.017Z,3.63
2019-02-02T11:22:32.214Z,3.46
2019-02-02T11:23:32.043Z,3.60
2019-02-02T11:24:32.094Z,3.62
2019-02-02T11:25:32.096Z,3.62
2019-02-02T11:26:32.055Z,3.51
2019-02-02T11:27:31.921Z,3.54
2019-02-02T11:28:32.087Z,3.51
2019-02-02T11:29:31.911Z,3.55
2019-02-02T11:30:31.961Z,3.42
2019-02-02T11:31:31.882Z,3.44
2019-02-02T11:32:31.860Z,3.41
2019-02-02T11:33:31.849Z,3.48
2019-02-02T11:34:31.870Z,3.46
2019-02-02T11:35:31.851Z,3.42
2019-02-02T11:36:31.820Z,3.48
2019-02-02T11:37:31.808Z,3.54
2019-02-02T11:38:31.807Z,3.52
2019-02-02T11:39:31.785Z,3.45
2019-02-02T11:40:31.856Z,3.33
2019-02-02T11:41:31.771Z,3.41
2019-02-02T11:42:31.765Z,3.36
2019-02-02T11:43:31.809Z,3.46
2019-02-02T11:44:31.731Z,3.52
2019-02-02T11:45:31.740Z,3.36
2019-02-02T11:46:31.771Z,3.56
2019-02-02T11:47:31.701Z,3.44
2019-02-02T11:48:31.693Z,3.48
2019-02-02T11:49:31.732Z,3.54
2019-02-02T11:50:31.674Z,3.56
2019-02-02T11:51:31.659Z,3.56
2019-02-02T11:52:31.680Z,3.60
2019-02-02T11:53:31.639Z,3.56
2019-02-02T11:54:31.647Z,3.67
2019-02-02T11:55:31.613Z,3.66
2019-02-02T11:56:31.610Z,3.55
2019-02-02T11:57:31.593Z,3.52
2019-02-02T11:58:31.634Z,3.52
2019-02-02T11:59:31.570Z,3.54
2019-02-02T12:00:31.597Z,3.56
2019-02-02T12:01:31.555Z,3.52
2019-02-02T12:02:31.558Z,3.54
2019-02-02T12:03:31.531Z,3.66
2019-02-02T12:04:31.586Z,3.62
2019-02-02T12:05:31.514Z,3.56
2019-02-02T12:06:31.515Z,3.52
2019-02-02T12:07:31.488Z,3.55
2019-02-02T12:08:31.474Z,3.52
2019-02-02T12:09:31.462Z,3.54
2019-02-02T12:10:31.487Z,3.48
2019-02-02T12:11:31.440Z,3.42
2019-02-02T12:12:31.438Z,3.48
2019-02-02T12:13:31.422Z,3.48
2019-02-02T12:14:31.409Z,3.45
2019-02-02T12:15:31.510Z,3.54
2019-02-02T12:16:31.550Z,3.36
2019-02-02T12:17:31.385Z,3.30
2019-02-02T12:18:31.491Z,3.20
2019-02-02T12:19:31.393Z,3.27
2019-02-02T12:20:33.343Z,3.23
2019-02-02T12:21:31.336Z,3.22
2019-02-02T12:22:31.356Z,3.22
2019-02-02T12:23:31.315Z,3.12
2019-02-02T12:24:31.300Z,3.07
2019-02-02T12:25:31.311Z,3.08
2019-02-02T12:26:31.279Z,2.84
2019-02-02T12:27:31.275Z,2.96
2019-02-02T12:28:31.309Z,2.96
2019-02-02T12:29:31.254Z,2.93
2019-02-02T12:30:31.241Z,2.94
2019-02-02T12:31:31.244Z,2.96
2019-02-02T12:32:31.219Z,2.96
2019-02-02T12:33:31.227Z,2.86
2019-02-02T12:34:31.238Z,2.82
2019-02-02T12:35:31.188Z,2.93
2019-02-02T12:36:31.175Z,2.97
2019-02-02T12:37:31.180Z,3.04
2019-02-02T12:38:31.151Z,3.07
2019-02-02T12:39:31.243Z,3.11
2019-02-02T12:40:31.183Z,3.11
2019-02-02T12:41:31.115Z,3.15
2019-02-02T12:42:31.106Z,3.17
2019-02-02T12:43:31.129Z,3.09
2019-02-02T12:44:31.086Z,3.22
2019-02-02T12:45:31.075Z,3.14
2019-02-02T12:46:31.117Z,3.12
2019-02-02T12:47:31.055Z,3.22
2019-02-02T12:48:32.388Z,3.08
2019-02-02T12:49:31.046Z,3.09
2019-02-02T12:50:31.020Z,3.14
2019-02-02T12:51:31.135Z,3.20
2019-02-02T12:52:31.042Z,3.17
2019-02-02T12:53:31.011Z,3.02
2019-02-02T12:54:30.978Z,3.02
2019-02-02T12:55:31.014Z,2.99
2019-02-02T12:56:30.964Z,3.04
2019-02-02T12:57:30.968Z,3.02
2019-02-02T12:58:30.987Z,3.05
2019-02-02T12:59:30.936Z,3.05
2019-02-02T13:00:30.914Z,2.99
2019-02-02T13:01:30.910Z,2.99
2019-02-02T13:02:37.763Z,2.99
2019-02-02T13:03:31.939Z,2.91
2019-02-02T13:04:30.869Z,2.94
2019-02-02T13:05:30.861Z,2.79
2019-02-02T13:06:30.858Z,2.82
2019-02-02T13:07:30.838Z,2.90
2019-02-02T13:08:30.828Z,2.89
2019-02-02T13:09:30.942Z,2.79
2019-02-02T13:10:30.811Z,2.93
2019-02-02T13:11:30.794Z,2.97
2019-02-02T13:12:31.484Z,2.86
2019-02-02T13:13:30.773Z,2.91
2019-02-02T13:14:30.765Z,2.91
2019-02-02T13:15:30.784Z,2.94
2019-02-02T13:16:30.737Z,2.96
2019-02-02T13:17:30.725Z,2.78
2019-02-02T13:18:30.885Z,2.96